sensor_id;sensor_type;location;lat;lon;timestamp;pressure;altitude;pressure_sealevel;temperature;humidity
82575;BME280;72260;65.870;13.210;2023-12-04T00:00:32;101398.31;;;-20.61;70.43
82575;BME280;72260;65.870;13.210;2023-12-04T00:02:58;101401.88;;;-20.81;72.07
82575;BME280;72260;65.870;13.210;2023-12-04T00:05:23;101399.03;;;-20.73;73.49
82575;BME280;72260;65.870;13.210;2023-12-04T00:07:49;101406.16;;;-20.68;73.42
82575;BME280;72260;65.870;13.210;2023-12-04T00:10:14;101397.63;;;-20.70;72.73
82575;BME280;72260;65.870;13.210;2023-12-04T00:12:40;101409.25;;;-20.60;70.93
82575;BME280;72260;65.870;13.210;2023-12-04T00:15:06;101404.50;;;-21.01;71.70
82575;BME280;72260;65.870;13.210;2023-12-04T00:17:31;101412.13;;;-21.11;70.69
82575;BME280;72260;65.870;13.210;2023-12-04T00:19:57;101411.34;;;-21.10;72.57
82575;BME280;72260;65.870;13.210;2023-12-04T00:22:23;101410.00;;;-20.95;72.51
82575;BME280;72260;65.870;13.210;2023-12-04T00:24:49;101398.44;;;-20.93;73.10
82575;BME280;72260;65.870;13.210;2023-12-04T00:27:14;101391.97;;;-20.67;72.16
82575;BME280;72260;65.870;13.210;2023-12-04T00:29:39;101380.84;;;-20.59;71.61
82575;BME280;72260;65.870;13.210;2023-12-04T00:32:05;101370.53;;;-20.86;70.09
82575;BME280;72260;65.870;13.210;2023-12-04T00:34:30;101370.47;;;-20.97;70.52
82575;BME280;72260;65.870;13.210;2023-12-04T00:36:56;101363.84;;;-20.85;70.94
82575;BME280;72260;65.870;13.210;2023-12-04T00:39:21;101371.53;;;-20.72;71.49
82575;BME280;72260;65.870;13.210;2023-12-04T00:41:47;101362.03;;;-20.64;72.98
82575;BME280;72260;65.870;13.210;2023-12-04T00:44:12;101366.53;;;-19.90;76.24
82575;BME280;72260;65.870;13.210;2023-12-04T00:46:38;101366.88;;;-19.97;73.77
82575;BME280;72260;65.870;13.210;2023-12-04T00:49:03;101372.41;;;-19.78;74.53
82575;BME280;72260;65.870;13.210;2023-12-04T00:51:29;101374.69;;;-19.58;75.47
82575;BME280;72260;65.870;13.210;2023-12-04T00:53:54;101376.56;;;-19.67;72.05
82575;BME280;72260;65.870;13.210;2023-12-04T00:56:19;101375.41;;;-20.19;69.04
82575;BME280;72260;65.870;13.210;2023-12-04T00:58:46;101365.69;;;-20.14;70.03
82575;BME280;72260;65.870;13.210;2023-12-04T01:01:11;101374.72;;;-20.04;70.05
82575;BME280;72260;65.870;13.210;2023-12-04T01:03:37;101376.59;;;-20.25;70.35
82575;BME280;72260;65.870;13.210;2023-12-04T01:06:03;101367.50;;;-20.35;70.12
82575;BME280;72260;65.870;13.210;2023-12-04T01:08:29;101370.47;;;-20.40;70.76
82575;BME280;72260;65.870;13.210;2023-12-04T01:10:54;101368.84;;;-20.52;70.99
82575;BME280;72260;65.870;13.210;2023-12-04T01:13:20;101356.63;;;-20.47;71.07
82575;BME280;72260;65.870;13.210;2023-12-04T01:15:46;101367.88;;;-20.54;72.11
82575;BME280;72260;65.870;13.210;2023-12-04T01:18:13;101362.06;;;-20.29;70.93
82575;BME280;72260;65.870;13.210;2023-12-04T01:20:39;101361.41;;;-20.03;69.52
82575;BME280;72260;65.870;13.210;2023-12-04T01:23:04;101360.75;;;-20.24;69.14
82575;BME280;72260;65.870;13.210;2023-12-04T01:25:30;101355.19;;;-20.55;69.81
82575;BME280;72260;65.870;13.210;2023-12-04T01:27:55;101357.25;;;-20.61;69.51
82575;BME280;72260;65.870;13.210;2023-12-04T01:30:21;101362.16;;;-20.63;70.15
82575;BME280;72260;65.870;13.210;2023-12-04T01:32:46;101365.06;;;-20.80;70.66
82575;BME280;72260;65.870;13.210;2023-12-04T01:35:12;101361.41;;;-20.95;71.38
82575;BME280;72260;65.870;13.210;2023-12-04T01:37:37;101366.97;;;-20.99;72.65
82575;BME280;72260;65.870;13.210;2023-12-04T01:40:04;101366.16;;;-20.77;73.57
82575;BME280;72260;65.870;13.210;2023-12-04T01:42:32;101359.41;;;-20.66;74.56
82575;BME280;72260;65.870;13.210;2023-12-04T01:44:57;101362.53;;;-20.47;74.22
82575;BME280;72260;65.870;13.210;2023-12-04T01:47:24;101357.13;;;-20.04;72.90
82575;BME280;72260;65.870;13.210;2023-12-04T01:49:50;101355.94;;;-19.98;71.39
82575;BME280;72260;65.870;13.210;2023-12-04T01:52:15;101351.03;;;-20.20;72.13
82575;BME280;72260;65.870;13.210;2023-12-04T01:54:42;101347.50;;;-20.33;71.10
82575;BME280;72260;65.870;13.210;2023-12-04T01:57:08;101351.38;;;-20.50;69.84
82575;BME280;72260;65.870;13.210;2023-12-04T01:59:34;101342.38;;;-21.03;69.56
82575;BME280;72260;65.870;13.210;2023-12-04T02:02:01;101350.97;;;-21.23;70.95
82575;BME280;72260;65.870;13.210;2023-12-04T02:04:27;101346.63;;;-21.14;71.62
82575;BME280;72260;65.870;13.210;2023-12-04T02:06:53;101343.09;;;-21.28;70.25
82575;BME280;72260;65.870;13.210;2023-12-04T02:09:19;101346.03;;;-21.33;71.09
82575;BME280;72260;65.870;13.210;2023-12-04T02:11:44;101346.09;;;-21.43;71.06
82575;BME280;72260;65.870;13.210;2023-12-04T02:14:09;101347.66;;;-21.56;71.50
82575;BME280;72260;65.870;13.210;2023-12-04T02:16:40;101354.69;;;-21.52;72.91
82575;BME280;72260;65.870;13.210;2023-12-04T02:19:13;101346.09;;;-21.43;73.41
82575;BME280;72260;65.870;13.210;2023-12-04T02:21:38;101343.78;;;-21.07;73.58
82575;BME280;72260;65.870;13.210;2023-12-04T02:24:04;101338.88;;;-20.72;72.32
82575;BME280;72260;65.870;13.210;2023-12-04T02:26:34;101333.38;;;-20.78;72.01
82575;BME280;72260;65.870;13.210;2023-12-04T02:29:07;101320.06;;;-20.77;70.66
82575;BME280;72260;65.870;13.210;2023-12-04T02:31:39;101328.16;;;-20.69;69.46
82575;BME280;72260;65.870;13.210;2023-12-04T02:34:06;101322.72;;;-21.09;68.83
82575;BME280;72260;65.870;13.210;2023-12-04T02:36:34;101329.00;;;-20.92;68.80
82575;BME280;72260;65.870;13.210;2023-12-04T02:39:00;101324.94;;;-21.02;69.10
82575;BME280;72260;65.870;13.210;2023-12-04T02:41:27;101317.91;;;-21.29;70.05
82575;BME280;72260;65.870;13.210;2023-12-04T02:43:53;101326.97;;;-21.08;70.67
82575;BME280;72260;65.870;13.210;2023-12-04T02:46:18;101318.16;;;-21.03;70.71
82575;BME280;72260;65.870;13.210;2023-12-04T02:48:44;101312.00;;;-21.30;70.75
82575;BME280;72260;65.870;13.210;2023-12-04T02:51:10;101301.88;;;-21.20;73.82
82575;BME280;72260;65.870;13.210;2023-12-04T02:53:35;101316.34;;;-20.94;73.08
82575;BME280;72260;65.870;13.210;2023-12-04T02:56:01;101316.09;;;-20.97;71.03
82575;BME280;72260;65.870;13.210;2023-12-04T02:58:26;101311.47;;;-20.81;69.75
82575;BME280;72260;65.870;13.210;2023-12-04T03:00:52;101310.69;;;-20.80;69.61
82575;BME280;72260;65.870;13.210;2023-12-04T03:03:17;101310.72;;;-21.13;70.49
82575;BME280;72260;65.870;13.210;2023-12-04T03:05:43;101306.28;;;-21.39;72.48
82575;BME280;72260;65.870;13.210;2023-12-04T03:08:08;101292.53;;;-21.44;71.97
82575;BME280;72260;65.870;13.210;2023-12-04T03:10:33;101294.06;;;-21.46;71.63
82575;BME280;72260;65.870;13.210;2023-12-04T03:12:59;101298.44;;;-21.43;72.35
82575;BME280;72260;65.870;13.210;2023-12-04T03:15:24;101299.59;;;-21.17;71.32
82575;BME280;72260;65.870;13.210;2023-12-04T03:17:50;101293.81;;;-21.04;70.86
82575;BME280;72260;65.870;13.210;2023-12-04T03:20:15;101291.34;;;-20.92;70.97
82575;BME280;72260;65.870;13.210;2023-12-04T03:22:41;101297.91;;;-20.83;70.64
82575;BME280;72260;65.870;13.210;2023-12-04T03:25:06;101308.94;;;-20.81;70.66
82575;BME280;72260;65.870;13.210;2023-12-04T03:27:32;101304.38;;;-21.20;69.96
82575;BME280;72260;65.870;13.210;2023-12-04T03:29:58;101295.94;;;-21.43;70.18
82575;BME280;72260;65.870;13.210;2023-12-04T03:32:23;101299.19;;;-21.44;70.89
82575;BME280;72260;65.870;13.210;2023-12-04T03:34:48;101297.84;;;-21.18;71.02
82575;BME280;72260;65.870;13.210;2023-12-04T03:37:14;101284.28;;;-21.20;70.70
82575;BME280;72260;65.870;13.210;2023-12-04T03:39:39;101287.72;;;-20.96;70.47
82575;BME280;72260;65.870;13.210;2023-12-04T03:42:05;101290.66;;;-21.01;70.52
82575;BME280;72260;65.870;13.210;2023-12-04T03:44:30;101292.75;;;-20.96;70.09
82575;BME280;72260;65.870;13.210;2023-12-04T03:46:56;101296.16;;;-20.84;71.52
82575;BME280;72260;65.870;13.210;2023-12-04T03:49:21;101304.78;;;-20.68;72.15
82575;BME280;72260;65.870;13.210;2023-12-04T03:51:47;101295.84;;;-20.65;73.51
82575;BME280;72260;65.870;13.210;2023-12-04T03:54:12;101288.84;;;-20.69;72.50
82575;BME280;72260;65.870;13.210;2023-12-04T03:56:39;101291.69;;;-20.41;73.91
82575;BME280;72260;65.870;13.210;2023-12-04T03:59:05;101297.34;;;-20.32;73.91
82575;BME280;72260;65.870;13.210;2023-12-04T04:01:31;101290.63;;;-20.56;71.42
82575;BME280;72260;65.870;13.210;2023-12-04T04:03:56;101289.28;;;-20.63;70.22
82575;BME280;72260;65.870;13.210;2023-12-04T04:06:22;101280.97;;;-20.85;70.07
82575;BME280;72260;65.870;13.210;2023-12-04T04:08:47;101290.97;;;-21.08;68.93
82575;BME280;72260;65.870;13.210;2023-12-04T04:11:13;101283.34;;;-20.98;69.45
82575;BME280;72260;65.870;13.210;2023-12-04T04:13:38;101282.53;;;-21.32;68.38
82575;BME280;72260;65.870;13.210;2023-12-04T04:16:04;101285.28;;;-21.18;68.38
82575;BME280;72260;65.870;13.210;2023-12-04T04:18:30;101289.66;;;-21.03;68.94
82575;BME280;72260;65.870;13.210;2023-12-04T04:20:56;101281.25;;;-21.16;68.50
82575;BME280;72260;65.870;13.210;2023-12-04T04:23:21;101277.75;;;-21.29;70.90
82575;BME280;72260;65.870;13.210;2023-12-04T04:25:47;101272.72;;;-21.18;72.74
82575;BME280;72260;65.870;13.210;2023-12-04T04:28:12;101276.59;;;-20.99;72.96
82575;BME280;72260;65.870;13.210;2023-12-04T04:30:38;101273.22;;;-20.88;71.00
82575;BME280;72260;65.870;13.210;2023-12-04T04:33:05;101259.56;;;-20.92;71.84
82575;BME280;72260;65.870;13.210;2023-12-04T04:35:30;101275.19;;;-20.84;70.42
82575;BME280;72260;65.870;13.210;2023-12-04T04:37:56;101279.50;;;-21.05;68.92
82575;BME280;72260;65.870;13.210;2023-12-04T04:40:21;101272.63;;;-21.07;69.38
82575;BME280;72260;65.870;13.210;2023-12-04T04:42:47;101271.22;;;-21.16;69.62
82575;BME280;72260;65.870;13.210;2023-12-04T04:45:13;101268.00;;;-21.36;70.34
82575;BME280;72260;65.870;13.210;2023-12-04T04:47:38;101273.13;;;-21.68;70.68
82575;BME280;72260;65.870;13.210;2023-12-04T04:50:04;101267.53;;;-21.42;71.78
82575;BME280;72260;65.870;13.210;2023-12-04T04:52:30;101260.09;;;-21.53;71.04
82575;BME280;72260;65.870;13.210;2023-12-04T04:54:55;101255.91;;;-21.64;71.55
82575;BME280;72260;65.870;13.210;2023-12-04T04:57:21;101259.06;;;-21.33;74.30
82575;BME280;72260;65.870;13.210;2023-12-04T04:59:46;101264.28;;;-21.41;71.70
82575;BME280;72260;65.870;13.210;2023-12-04T05:02:12;101257.91;;;-21.60;71.83
82575;BME280;72260;65.870;13.210;2023-12-04T05:04:37;101256.03;;;-21.84;72.11
82575;BME280;72260;65.870;13.210;2023-12-04T05:07:03;101263.72;;;-21.71;71.55
82575;BME280;72260;65.870;13.210;2023-12-04T05:09:29;101252.34;;;-21.56;71.60
82575;BME280;72260;65.870;13.210;2023-12-04T05:11:55;101268.44;;;-20.85;69.98
82575;BME280;72260;65.870;13.210;2023-12-04T05:14:20;101258.03;;;-20.90;68.92
82575;BME280;72260;65.870;13.210;2023-12-04T05:16:45;101266.09;;;-21.05;69.20
82575;BME280;72260;65.870;13.210;2023-12-04T05:19:11;101254.00;;;-20.76;69.72
82575;BME280;72260;65.870;13.210;2023-12-04T05:21:36;101256.84;;;-20.95;70.08
82575;BME280;72260;65.870;13.210;2023-12-04T05:24:02;101247.25;;;-20.89;71.19
82575;BME280;72260;65.870;13.210;2023-12-04T05:26:27;101258.38;;;-20.85;70.54
82575;BME280;72260;65.870;13.210;2023-12-04T05:28:53;101257.84;;;-20.81;70.18
82575;BME280;72260;65.870;13.210;2023-12-04T05:31:18;101262.53;;;-20.86;69.39
82575;BME280;72260;65.870;13.210;2023-12-04T05:33:44;101254.34;;;-20.71;69.24
82575;BME280;72260;65.870;13.210;2023-12-04T05:36:09;101256.97;;;-20.82;69.97
82575;BME280;72260;65.870;13.210;2023-12-04T05:38:35;101258.41;;;-20.50;69.19
82575;BME280;72260;65.870;13.210;2023-12-04T05:41:00;101258.41;;;-20.50;69.52
82575;BME280;72260;65.870;13.210;2023-12-04T05:43:26;101257.94;;;-20.56;69.81
82575;BME280;72260;65.870;13.210;2023-12-04T05:45:51;101243.31;;;-20.50;69.19
82575;BME280;72260;65.870;13.210;2023-12-04T05:48:18;101242.19;;;-20.77;68.83
82575;BME280;72260;65.870;13.210;2023-12-04T05:50:43;101253.03;;;-20.66;68.50
82575;BME280;72260;65.870;13.210;2023-12-04T05:53:09;101241.53;;;-20.98;70.27
82575;BME280;72260;65.870;13.210;2023-12-04T05:55:34;101245.56;;;-21.00;70.75
82575;BME280;72260;65.870;13.210;2023-12-04T05:58:00;101248.66;;;-20.69;70.29
82575;BME280;72260;65.870;13.210;2023-12-04T06:00:25;101243.19;;;-20.63;69.26
82575;BME280;72260;65.870;13.210;2023-12-04T06:02:51;101245.41;;;-20.80;69.66
82575;BME280;72260;65.870;13.210;2023-12-04T06:05:16;101242.97;;;-20.78;70.95
82575;BME280;72260;65.870;13.210;2023-12-04T06:07:42;101243.19;;;-20.98;70.94
82575;BME280;72260;65.870;13.210;2023-12-04T06:10:07;101242.41;;;-20.97;72.43
82575;BME280;72260;65.870;13.210;2023-12-04T06:12:34;101237.53;;;-20.84;71.77
82575;BME280;72260;65.870;13.210;2023-12-04T06:14:59;101240.81;;;-20.85;71.37
82575;BME280;72260;65.870;13.210;2023-12-04T06:17:26;101237.88;;;-20.80;70.54
82575;BME280;72260;65.870;13.210;2023-12-04T06:19:53;101244.72;;;-20.89;69.70
82575;BME280;72260;65.870;13.210;2023-12-04T06:22:18;101241.44;;;-21.11;70.97
82575;BME280;72260;65.870;13.210;2023-12-04T06:24:47;101240.97;;;-21.17;70.80
82575;BME280;72260;65.870;13.210;2023-12-04T06:27:15;101235.41;;;-21.25;70.11
82575;BME280;72260;65.870;13.210;2023-12-04T06:29:41;101240.28;;;-21.50;69.99
82575;BME280;72260;65.870;13.210;2023-12-04T06:32:07;101239.97;;;-21.76;71.01
82575;BME280;72260;65.870;13.210;2023-12-04T06:34:33;101245.06;;;-21.41;71.29
82575;BME280;72260;65.870;13.210;2023-12-04T06:36:59;101245.53;;;-21.47;69.66
82575;BME280;72260;65.870;13.210;2023-12-04T06:39:32;101242.25;;;-21.34;70.44
82575;BME280;72260;65.870;13.210;2023-12-04T06:41:59;101242.59;;;-21.29;69.57
82575;BME280;72260;65.870;13.210;2023-12-04T06:44:24;101234.53;;;-21.25;70.39
82575;BME280;72260;65.870;13.210;2023-12-04T06:46:51;101232.78;;;-21.26;69.55
82575;BME280;72260;65.870;13.210;2023-12-04T06:49:18;101235.72;;;-21.32;69.33
82575;BME280;72260;65.870;13.210;2023-12-04T06:51:43;101230.59;;;-21.33;69.94
82575;BME280;72260;65.870;13.210;2023-12-04T06:54:09;101230.41;;;-21.25;70.72
82575;BME280;72260;65.870;13.210;2023-12-04T06:56:34;101223.94;;;-21.09;70.70
82575;BME280;72260;65.870;13.210;2023-12-04T06:59:00;101229.53;;;-20.90;74.81
82575;BME280;72260;65.870;13.210;2023-12-04T07:01:25;101233.81;;;-20.54;72.80
82575;BME280;72260;65.870;13.210;2023-12-04T07:03:51;101239.28;;;-20.60;71.27
82575;BME280;72260;65.870;13.210;2023-12-04T07:06:16;101229.22;;;-20.71;70.98
82575;BME280;72260;65.870;13.210;2023-12-04T07:08:42;101244.16;;;-20.96;72.09
82575;BME280;72260;65.870;13.210;2023-12-04T07:11:07;101248.56;;;-21.39;71.47
82575;BME280;72260;65.870;13.210;2023-12-04T07:13:33;101246.97;;;-21.15;72.23
82575;BME280;72260;65.870;13.210;2023-12-04T07:15:59;101236.50;;;-21.09;71.92
82575;BME280;72260;65.870;13.210;2023-12-04T07:18:25;101243.63;;;-20.69;75.60
82575;BME280;72260;65.870;13.210;2023-12-04T07:20:51;101247.66;;;-20.71;72.61
82575;BME280;72260;65.870;13.210;2023-12-04T07:23:16;101243.75;;;-20.91;69.27
82575;BME280;72260;65.870;13.210;2023-12-04T07:25:41;101245.56;;;-21.12;68.22
82575;BME280;72260;65.870;13.210;2023-12-04T07:28:07;101241.78;;;-21.52;68.48
82575;BME280;72260;65.870;13.210;2023-12-04T07:30:33;101247.34;;;-21.56;69.05
82575;BME280;72260;65.870;13.210;2023-12-04T07:32:58;101249.94;;;-21.88;69.29
82575;BME280;72260;65.870;13.210;2023-12-04T07:35:25;101242.72;;;-21.61;69.36
82575;BME280;72260;65.870;13.210;2023-12-04T07:37:51;101243.94;;;-21.56;70.22
82575;BME280;72260;65.870;13.210;2023-12-04T07:40:17;101236.72;;;-21.63;71.70
82575;BME280;72260;65.870;13.210;2023-12-04T07:42:43;101242.09;;;-21.59;71.49
82575;BME280;72260;65.870;13.210;2023-12-04T07:45:08;101244.47;;;-21.27;71.82
82575;BME280;72260;65.870;13.210;2023-12-04T07:47:36;101229.41;;;-21.15;71.68
82575;BME280;72260;65.870;13.210;2023-12-04T07:50:01;101232.03;;;-21.14;71.14
82575;BME280;72260;65.870;13.210;2023-12-04T07:52:27;101223.97;;;-21.21;70.69
82575;BME280;72260;65.870;13.210;2023-12-04T07:54:52;101234.91;;;-20.86;71.53
82575;BME280;72260;65.870;13.210;2023-12-04T07:57:18;101223.31;;;-20.95;69.59
82575;BME280;72260;65.870;13.210;2023-12-04T07:59:44;101228.19;;;-21.08;70.69
82575;BME280;72260;65.870;13.210;2023-12-04T08:02:10;101224.63;;;-21.00;71.45
82575;BME280;72260;65.870;13.210;2023-12-04T08:04:35;101229.22;;;-20.95;70.71
82575;BME280;72260;65.870;13.210;2023-12-04T08:07:01;101222.66;;;-20.93;69.81
82575;BME280;72260;65.870;13.210;2023-12-04T08:09:27;101219.63;;;-20.89;69.77
82575;BME280;72260;65.870;13.210;2023-12-04T08:11:53;101223.28;;;-21.07;68.64
82575;BME280;72260;65.870;13.210;2023-12-04T08:14:18;101227.25;;;-21.22;69.64
82575;BME280;72260;65.870;13.210;2023-12-04T08:16:44;101227.03;;;-21.14;70.11
82575;BME280;72260;65.870;13.210;2023-12-04T08:19:09;101234.09;;;-21.08;70.44
82575;BME280;72260;65.870;13.210;2023-12-04T08:21:35;101242.72;;;-21.04;68.84
82575;BME280;72260;65.870;13.210;2023-12-04T08:24:00;101235.53;;;-21.12;69.66
82575;BME280;72260;65.870;13.210;2023-12-04T08:26:25;101231.38;;;-21.23;70.97
82575;BME280;72260;65.870;13.210;2023-12-04T08:28:52;101234.09;;;-21.08;70.56
82575;BME280;72260;65.870;13.210;2023-12-04T08:31:17;101231.38;;;-21.11;69.00
82575;BME280;72260;65.870;13.210;2023-12-04T08:33:43;101231.38;;;-21.11;71.06
82575;BME280;72260;65.870;13.210;2023-12-04T08:36:09;101230.09;;;-20.71;70.49
82575;BME280;72260;65.870;13.210;2023-12-04T08:38:35;101233.25;;;-20.73;69.59
82575;BME280;72260;65.870;13.210;2023-12-04T08:41:03;101222.88;;;-20.78;70.55
82575;BME280;72260;65.870;13.210;2023-12-04T08:43:28;101223.66;;;-20.79;68.46
82575;BME280;72260;65.870;13.210;2023-12-04T08:45:54;101232.47;;;-21.07;68.07
82575;BME280;72260;65.870;13.210;2023-12-04T08:48:20;101227.97;;;-21.35;68.12
82575;BME280;72260;65.870;13.210;2023-12-04T08:50:45;101237.31;;;-21.99;69.93
82575;BME280;72260;65.870;13.210;2023-12-04T08:53:11;101240.03;;;-21.74;70.10
82575;BME280;72260;65.870;13.210;2023-12-04T08:55:37;101250.63;;;-21.78;69.69
82575;BME280;72260;65.870;13.210;2023-12-04T08:58:02;101242.78;;;-21.71;70.56
82575;BME280;72260;65.870;13.210;2023-12-04T09:00:28;101246.22;;;-21.26;70.36
82575;BME280;72260;65.870;13.210;2023-12-04T09:02:53;101238.81;;;-21.24;71.61
82575;BME280;72260;65.870;13.210;2023-12-04T09:05:19;101233.63;;;-21.37;71.07
82575;BME280;72260;65.870;13.210;2023-12-04T09:07:45;101234.78;;;-21.22;70.64
82575;BME280;72260;65.870;13.210;2023-12-04T09:10:10;101227.56;;;-21.06;69.99
82575;BME280;72260;65.870;13.210;2023-12-04T09:12:35;101222.97;;;-21.00;72.02
82575;BME280;72260;65.870;13.210;2023-12-04T09:15:04;101216.56;;;-20.61;71.91
82575;BME280;72260;65.870;13.210;2023-12-04T09:17:30;101227.38;;;-20.62;70.85
82575;BME280;72260;65.870;13.210;2023-12-04T09:19:55;101226.13;;;-20.44;72.70
82575;BME280;72260;65.870;13.210;2023-12-04T09:22:21;101227.38;;;-20.62;72.40
82575;BME280;72260;65.870;13.210;2023-12-04T09:24:46;101234.91;;;-20.62;71.88
82575;BME280;72260;65.870;13.210;2023-12-04T09:27:12;101223.88;;;-20.88;71.77
82575;BME280;72260;65.870;13.210;2023-12-04T09:29:37;101232.50;;;-20.84;72.10
82575;BME280;72260;65.870;13.210;2023-12-04T09:32:03;101238.06;;;-20.65;69.36
82575;BME280;72260;65.870;13.210;2023-12-04T09:34:29;101231.19;;;-20.91;69.83
82575;BME280;72260;65.870;13.210;2023-12-04T09:36:54;101226.28;;;-20.89;70.31
82575;BME280;72260;65.870;13.210;2023-12-04T09:39:19;101228.03;;;-20.88;70.81
82575;BME280;72260;65.870;13.210;2023-12-04T09:41:45;101221.69;;;-20.83;71.03
82575;BME280;72260;65.870;13.210;2023-12-04T09:44:12;101226.50;;;-20.63;70.52
82575;BME280;72260;65.870;13.210;2023-12-04T09:46:37;101229.00;;;-20.98;70.48
82575;BME280;72260;65.870;13.210;2023-12-04T09:49:04;101230.34;;;-20.80;70.81
82575;BME280;72260;65.870;13.210;2023-12-04T09:51:29;101218.84;;;-20.64;71.17
82575;BME280;72260;65.870;13.210;2023-12-04T09:53:56;101228.03;;;-20.53;69.56
82575;BME280;72260;65.870;13.210;2023-12-04T09:56:23;101223.31;;;-20.49;68.62
82575;BME280;72260;65.870;13.210;2023-12-04T09:58:52;101215.94;;;-20.34;69.06
82575;BME280;72260;65.870;13.210;2023-12-04T10:01:21;101208.13;;;-20.50;69.84
82575;BME280;72260;65.870;13.210;2023-12-04T10:03:46;101214.06;;;-20.36;69.68
82575;BME280;72260;65.870;13.210;2023-12-04T10:06:15;101204.63;;;-20.75;68.51
82575;BME280;72260;65.870;13.210;2023-12-04T10:08:43;101193.53;;;-20.91;68.71
82575;BME280;72260;65.870;13.210;2023-12-04T10:11:10;101200.19;;;-20.80;69.14
82575;BME280;72260;65.870;13.210;2023-12-04T10:13:35;101205.41;;;-20.53;70.21
82575;BME280;72260;65.870;13.210;2023-12-04T10:16:01;101195.56;;;-20.50;70.86
82575;BME280;72260;65.870;13.210;2023-12-04T10:18:30;101200.38;;;-20.53;70.44
82575;BME280;72260;65.870;13.210;2023-12-04T10:20:57;101214.69;;;-20.64;69.99
82575;BME280;72260;65.870;13.210;2023-12-04T10:23:37;101203.34;;;-20.70;70.76
82575;BME280;72260;65.870;13.210;2023-12-04T10:26:04;101210.75;;;-20.72;71.13
82575;BME280;72260;65.870;13.210;2023-12-04T10:28:29;101209.34;;;-20.68;70.16
82575;BME280;72260;65.870;13.210;2023-12-04T10:30:55;101205.41;;;-20.65;70.17
82575;BME280;72260;65.870;13.210;2023-12-04T10:33:24;101198.53;;;-20.56;69.85
82575;BME280;72260;65.870;13.210;2023-12-04T10:35:53;101201.69;;;-20.70;69.61
82575;BME280;72260;65.870;13.210;2023-12-04T10:38:20;101199.72;;;-20.51;69.27
82575;BME280;72260;65.870;13.210;2023-12-04T10:40:46;101203.25;;;-20.84;69.55
82575;BME280;72260;65.870;13.210;2023-12-04T10:43:17;101207.69;;;-20.68;69.34
82575;BME280;72260;65.870;13.210;2023-12-04T10:45:44;101213.59;;;-20.91;71.32
82575;BME280;72260;65.870;13.210;2023-12-04T10:48:15;101205.41;;;-20.88;72.09
82575;BME280;72260;65.870;13.210;2023-12-04T10:50:43;101195.47;;;-20.63;70.73
82575;BME280;72260;65.870;13.210;2023-12-04T10:53:12;101203.66;;;-20.66;70.32
82575;BME280;72260;65.870;13.210;2023-12-04T10:55:39;101211.75;;;-20.58;70.11
82575;BME280;72260;65.870;13.210;2023-12-04T10:58:07;101192.41;;;-20.59;69.48
82575;BME280;72260;65.870;13.210;2023-12-04T11:00:34;101193.75;;;-20.28;68.79
82575;BME280;72260;65.870;13.210;2023-12-04T11:03:10;101184.41;;;-20.42;68.59
82575;BME280;72260;65.870;13.210;2023-12-04T11:05:41;101188.69;;;-20.53;69.44
82575;BME280;72260;65.870;13.210;2023-12-04T11:08:14;101185.31;;;-20.65;69.99
82575;BME280;72260;65.870;13.210;2023-12-04T11:10:58;101199.69;;;-20.39;70.59
82575;BME280;72260;65.870;13.210;2023-12-04T11:13:27;101191.44;;;-20.25;71.79
82575;BME280;72260;65.870;13.210;2023-12-04T11:16:00;101186.31;;;-19.90;72.03
82575;BME280;72260;65.870;13.210;2023-12-04T11:18:27;101177.06;;;-19.78;72.37
82575;BME280;72260;65.870;13.210;2023-12-04T11:21:00;101186.53;;;-19.87;70.66
82575;BME280;72260;65.870;13.210;2023-12-04T11:23:29;101183.78;;;-19.65;70.50
82575;BME280;72260;65.870;13.210;2023-12-04T11:25:57;101182.94;;;-19.39;70.13
82575;BME280;72260;65.870;13.210;2023-12-04T11:28:23;101177.50;;;-19.45;68.49
82575;BME280;72260;65.870;13.210;2023-12-04T11:30:50;101181.66;;;-19.46;68.66
82575;BME280;72260;65.870;13.210;2023-12-04T11:33:15;101191.31;;;-19.27;68.85
82575;BME280;72260;65.870;13.210;2023-12-04T11:35:41;101178.88;;;-19.37;68.02
82575;BME280;72260;65.870;13.210;2023-12-04T11:38:06;101185.16;;;-19.44;67.88
82575;BME280;72260;65.870;13.210;2023-12-04T11:40:35;101178.53;;;-19.68;68.60
82575;BME280;72260;65.870;13.210;2023-12-04T11:43:25;101173.41;;;-19.69;68.57
82575;BME280;72260;65.870;13.210;2023-12-04T11:45:52;101185.34;;;-19.92;68.00
82575;BME280;72260;65.870;13.210;2023-12-04T11:48:22;101178.91;;;-20.36;69.03
82575;BME280;72260;65.870;13.210;2023-12-04T11:50:49;101178.34;;;-20.81;70.32
82575;BME280;72260;65.870;13.210;2023-12-04T11:53:15;101186.41;;;-20.96;71.23
82575;BME280;72260;65.870;13.210;2023-12-04T11:55:41;101185.53;;;-20.73;71.04
82575;BME280;72260;65.870;13.210;2023-12-04T11:58:11;101180.00;;;-20.81;71.66
82575;BME280;72260;65.870;13.210;2023-12-04T12:00:37;101179.09;;;-20.58;72.47
82575;BME280;72260;65.870;13.210;2023-12-04T12:03:07;101177.13;;;-20.51;71.41
82575;BME280;72260;65.870;13.210;2023-12-04T12:05:35;101174.81;;;-20.48;71.07
82575;BME280;72260;65.870;13.210;2023-12-04T12:08:04;101184.13;;;-20.33;70.22
82575;BME280;72260;65.870;13.210;2023-12-04T12:10:30;101182.25;;;-20.49;71.53
82575;BME280;72260;65.870;13.210;2023-12-04T12:12:56;101171.34;;;-20.25;70.87
82575;BME280;72260;65.870;13.210;2023-12-04T12:15:22;101184.47;;;-20.29;71.72
82575;BME280;72260;65.870;13.210;2023-12-04T12:17:49;101180.09;;;-20.31;71.66
82575;BME280;72260;65.870;13.210;2023-12-04T12:20:15;101184.34;;;-20.19;71.93
82575;BME280;72260;65.870;13.210;2023-12-04T12:22:41;101174.75;;;-19.99;72.29
82575;BME280;72260;65.870;13.210;2023-12-04T12:25:10;101176.03;;;-19.68;72.58